ADDS METAR Data INFO
IDs: Format: Raw Decoded Include TAF

Data at: 0903 UTC 20 Oct 2017

KVCB 200853Z AUTO 00000KT 10SM OVC090 12/11 A2989 RMK AO2 RAE40 SLP120 P0001 60011 T01220111 50025
KVCB 200753Z AUTO 34007KT 7SM -RA SCT025 BKN055 OVC075 13/11 A2989 RMK AO2 WSHFT 0640 SLP121 P0002 T01330111 402170128
KVCB 200700Z AUTO 29011G19KT 8SM -RA FEW018 FEW026 OVC049 15/13 A2984 RMK AO2 WSHFT 0640 P0000 T01500128
KVCB 200653Z AUTO 29013G23KT 6SM -RA BR FEW016 SCT027 OVC047 15/13 A2983 RMK AO2 PK WND 21036/0639 WSHFT 0635 RAE0557B26 SLP100 P0008 T01500133
KVCB 200649Z AUTO 28015G34KT 5SM -RA BR FEW013 BKN026 OVC042 16/14 A2982 RMK AO2 PK WND 21036/0639 WSHFT 0635 RAE0557B26 PRESRR P0007
KVCB 200638Z AUTO 21015G20KT 2SM RA BR SCT017 BKN023 OVC029 16/15 A2981 RMK AO2 RAE0557B26 P0006 T01610150
KVCB 200553Z AUTO 18011KT 6SM -RA BR OVC015 16/15 A2982 RMK AO2 RAB37 SLP095 P0002 60003 T01610150 10194 20150 56017
KVCB 200531Z AUTO 17010G17KT 10SM BKN014 BKN020 OVC027 16/15 A2982 RMK AO2 T01610150
KVCB 200507Z AUTO 19013G17KT 10SM SCT010 BKN021 OVC060 16/15 A2984 RMK AO2 T01610150
KVCB 200453Z AUTO 20010G16KT 10SM BKN010 OVC018 16/16 A2984 RMK AO2 SLP103 T01610156
KVCB 200444Z AUTO 21008G17KT 10SM OVC010 16/16 A2985 RMK AO2 CIG 008V012 T01610156
KVCB 200403Z AUTO 21011G17KT 10SM OVC007 16/15 A2986 RMK AO2 T01560150
KVCB 200353Z AUTO 21008KT 10SM OVC008 16/15 A2987 RMK AO2 RAB14E25 CIG 006V012 SLP112 P0001 T01560150
KVCB 200306Z AUTO 22010KT 4SM BR BKN008 BKN011 OVC033 15/14 A2987 RMK AO2 T01500144
KVCB 200301Z AUTO 22010KT 6SM BR BKN011 BKN017 OVC040 15/14 A2987 RMK AO2 T01500144
KVCB 200253Z AUTO 21012KT 8SM SCT013 BKN018 OVC040 15/14 A2987 RMK AO2 SLP114 T01500144 58002
KVCB 200226Z AUTO 21010G21KT 7SM SCT021 BKN029 OVC039 16/13 A2987 RMK AO2 T01560133
KVCB 200153Z AUTO 22012KT 10SM FEW035 16/13 A2988 RMK AO2 SLP118 T01610133
KVCB 200053Z AUTO 21009G16KT 10SM FEW026 17/13 A2988 RMK AO2 SLP116 T01670128
KVCB 192353Z AUTO 22009G18KT 10SM FEW028 19/12 A2988 RMK AO2 SLP116 T01890122 10217 20183 56012
KVCB 192253Z AUTO 21014G22KT 10SM CLR 19/12 A2989 RMK AO2 PK WND 22026/2156 SLP120 T01890122
KVCB 192153Z AUTO 22018G23KT 10SM CLR 21/12 A2989 RMK AO2 SLP122 T02060122
KVCB 192053Z AUTO 23015G22KT 10SM BKN047 22/12 A2991 RMK AO2 SLP128 T02170117 58009
KVCB 191953Z AUTO 25012G21KT 10SM SCT046 21/11 A2993 RMK AO2 SLP135 T02060111
KVCB 191853Z AUTO 21013G20KT 10SM CLR 21/11 A2995 RMK AO2 SLP140 T02110106
KVCB 191753Z AUTO 20008KT 10SM BKN075 19/11 A2994 RMK AO2 SLP137 T01890106 10194 20133 51010
KVCB 191653Z AUTO 20007KT 10SM SCT070 18/10 A2994 RMK AO2 SLP136 T01830100
KVCB 191553Z AUTO 20005KT 10SM FEW080 17/09 A2993 RMK AO2 SLP133 T01670094
KVCB 191453Z AUTO VRB06KT 10SM BKN085 14/09 A2991 RMK AO2 SLP127 T01440089 53000
KVCB 191353Z AUTO 26003KT 10SM BKN085 14/08 A2991 RMK AO2 SLP127 T01440083
KVCB 191253Z AUTO 19005KT 10SM OVC085 14/09 A2991 RMK AO2 SLP126 T01440089
KVCB 191153Z AUTO 20009G16KT 10SM CLR 13/08 A2991 RMK AO2 SLP127 T01330083 10172 20128 58005
KVCB 191053Z AUTO 20010KT 10SM CLR 13/08 A2992 RMK AO2 SLP130 T01330083
KVCB 190953Z AUTO 20011G18KT 10SM CLR 13/08 A2992 RMK AO2 SLP131 T01330078
KVCB 190853Z AUTO 21012G20KT 10SM CLR 13/08 A2992 RMK AO2 SLP132 T01330083 58003
KVCB 190753Z AUTO 19005G17KT 10SM CLR 14/08 A2992 RMK AO2 SLP132 T01440078 402720067
KVCB 190653Z AUTO 19006KT 10SM CLR 16/07 A2993 RMK AO2 SLP135 T01560072
KVCB 190553Z AUTO 22005KT 10SM CLR 15/07 A2993 RMK AO2 SLP135 T01500067 10261 20150 53002
KVCB 190453Z AUTO 22004KT 10SM CLR 16/07 A2992 RMK AO2 SLP132 T01560067
KVCB 190353Z AUTO 23006KT 10SM CLR 17/06 A2992 RMK AO2 SLP131 T01720061
KVCB 190253Z AUTO 20006KT 9SM CLR 19/06 A2993 RMK AO2 SLP133 T01890061 55004
KVCB 190153Z AUTO 21007KT 8SM CLR 21/07 A2992 RMK AO2 SLP132 T02060072
KVCB 190053Z AUTO 22010KT 6SM HZ CLR 24/06 A2993 RMK AO2 SLP134 T02390061
KVCB 182353Z AUTO 21012KT 6SM HZ CLR 26/01 A2994 RMK AO2 SLP137 T02610006 10272 20206 56021
KVCB 182253Z AUTO 20007KT 8SM CLR 27/02 A2995 RMK AO2 SLP141 T02670017
KVCB 182153Z AUTO 20009KT 7SM CLR 27/03 A2997 RMK AO2 SLP149 T02670033